• Join FlightAware (Why Join?)
  • Login
  • US Flag 
02:57AM EDT


 

Airport Tracker/Info


-or-


 

Live Flight TrackerFlight Track Log ✈ EJA808 ✈ 02-May-2013 ✈ KMDW - KCGF

Flight Track Log - Related Links

Times and Time Zones

All times are in EDT time to prevent confusion due to time zone crossing. See the EJA808 flight status page for this flight to view local times or setup timezone preferences in your user account.

Time Position Orientation Groundspeed Altitude Reporting Facility
EDT Latitude Longitude Course Direction KTS MPH feet Rate Location/Type
12:58PM 41.8000 -87.7333 91° East 162 186 2,300  Level Chicago TRACON
12:59PM 41.8000 -87.6500 90° East 239 275 4,400 1,680 Climbing Chicago TRACON
01:00PM 41.8025 -87.6133 85° East 227 261 4,800 1,440 Climbing Chicago Center
01:01PM 41.8061 -87.5122 87° East 254 292 6,600 2,220 Climbing Chicago Center
01:02PM 41.8061 -87.4094 90° East 275 316 9,400 2,820 Climbing Chicago Center
01:03PM 41.7914 -87.3053 101° East 286 329 12,400 3,000 Climbing Chicago Center
01:04PM 41.7811 -87.2667 91° East  Level Estimated
01:04PM 41.7767 -87.1767 99° East 292 336 15,600  Level Chicago Center
01:05PM 41.7628 -87.0572 99° East 315 362 17,600 1,920 Climbing Chicago Center
01:06PM 41.7639 -86.9272 89° East 346 398 19,600 2,100 Climbing Chicago Center
01:07PM 41.7658 -86.7983 89° East 349 402 22,000 2,100 Climbing Chicago Center
01:08PM 41.7783 -86.6681 83° East 355 409 24,000 1,740 Climbing Chicago Center
01:09PM 41.7911 -86.5314 83° East 366 421 25,600 1,440 Climbing Chicago Center
01:10PM 41.8053 -86.3897 82° East 378 435 27,000 660 Climbing Chicago Center
01:11PM 41.8222 -86.2144 83° East 393 452 27,000  Level Chicago Center
01:12PM 41.8353 -86.0692 83° East 392 451 27,000  Level Chicago Center
01:13PM 41.8494 -85.9253 82° East 388 447 27,000  Level Chicago Center
01:14PM 41.8622 -85.7797 83° East 391 450 27,000  Level Chicago Center
01:15PM 41.8761 -85.6342 83° East 392 451 27,000  Level Chicago Center
01:16PM 41.8892 -85.4864 83° East 394 453 27,000  Level Chicago Center
01:17PM 41.9025 -85.3386 83° East 396 456 27,000  Level Chicago Center
01:18PM 41.9144 -85.1911 84° East 396 456 27,000  Level Chicago Center
01:19PM 41.9292 -85.0144 84° East 395 455 27,000  Level Chicago Center
01:20PM 41.9419 -84.8658 83° East 399 459 27,000  Level Chicago Center
01:21PM 41.9544 -84.7103 84° East 396 456 27,000  Level Cleveland Center
01:22PM 41.9639 -84.5600 85° East 396 456 27,000  Level Cleveland Center
01:23PM 41.9792 -84.4158 82° East 396 456 27,000  Level Cleveland Center
01:24PM 41.9864 -84.2597 86° East 385 443 27,000  Level Cleveland Center
01:25PM 41.9975 -84.1122 84° East 385 443 27,000 -300 Level Cleveland Center
01:26PM 42.0078 -83.9703 84° East 385 443 26,400 -1,080 Descending Cleveland Center
01:27PM 42.0183 -83.8283 84° East 396 456 24,900 -1,200 Descending Cleveland Center
01:28PM 42.0286 -83.6806 85° East 402 463 24,000 -480 Descending Cleveland Center
01:29PM 42.0408 -83.5303 84° East 402 463 24,000  Level Cleveland Center
01:31PM 42.0364 -83.3817 92° East 402 463 24,000  Level Cleveland Center
01:31PM 42.0233 -83.2189 96° East 402 463 24,000  Level Cleveland Center
01:33PM 42.0097 -83.0844 98° East 402 463 24,000  Level Cleveland Center
01:34PM 41.9942 -82.9356 98° East 402 463 24,000 -780 Level Cleveland Center
01:35PM 41.9806 -82.7869 97° East 402 463 22,500 -1,560 Descending Cleveland Center
01:35PM 41.9664 -82.6442 98° East 396 456 21,000 -1,500 Descending Cleveland Center
01:37PM 41.9522 -82.5042 98° East 390 449 19,500 -1,740 Descending Cleveland Center
01:37PM 41.9414 -82.3978 98° East 377 434 18,000 -1,560 Descending Cleveland Center
01:37PM 41.9378 -82.3669 99° East 384 442 18,000 -1,620 Level Cleveland Center
01:38PM 41.9250 -82.2408 98° East 359 413 16,200 -2,040 Descending Cleveland Center
01:39PM 41.9081 -82.1122 100° East 354 407 14,300 -1,860 Descending Cleveland Center
01:40PM 41.8678 -82.0053 117° Southeast 334 384 12,700 -1,560 Descending Cleveland Center
01:41PM 41.8617 -81.9939 126° Southeast 344 396 12,500 -1,800 Descending Cleveland Center
01:41PM 41.8272 -81.9067 118° Southeast 307 353 10,900 -1,860 Descending Cleveland Center
01:43PM 41.7825 -81.8000 119° Southeast 289 333 8,800 -1,860 Descending Cleveland Center
01:43PM 41.7500 -81.7269 121° Southeast 265 305 7,200 -1,980 Descending Cleveland Center
01:44PM 41.7153 -81.6431 119° Southeast 257 296 5,300 -1,740 Descending Cleveland Center
01:45PM 41.6786 -81.5672 123° Southeast 247 284 3,700 -1,500 Descending Cleveland Center
01:46PM 41.6478 -81.4972 121° Southeast 240 276 2,500 -1,020 Descending Cleveland Center
01:47PM 41.6375 -81.4778 125° Southeast 245 282 2,500 -180 Level Cleveland Center
01:47PM 41.6169 -81.4303 120° Southeast 154 177 2,300 -540 Descending Cleveland Center
01:48PM 41.5897 -81.4439 201° Southwest 119 137 1,600 -780 Descending Cleveland Center
01:50PM 41.5651 -81.4864 194° South  Level Estimated
01:57PM 41.5651 -81.4864 194° South  Level Estimated